Time,TemperatureF,DewpointF,PressureIn,WindDirection,WindDirectionDegrees,WindSpeedMPH,WindSpeedGustMPH,Humidity,HourlyPrecipIn,Conditions,Clouds,dailyrainin,SoftwareType,DateUTC
2013-01-14 00:04:00,64.0,54.0,-100.00,SSW,200,9.0,14.0,69,0.00,,,-99.99,,2013-01-14 05:04:00,
2013-01-14 00:12:00,64.0,54.0,-100.00,SSW,200,9.0,14.0,69,0.00,,,-99.99,,2013-01-14 05:12:00,
2013-01-14 00:22:00,65.0,54.0,-100.00,SSW,200,11.0,16.0,68,0.00,,,-99.99,,2013-01-14 05:22:00,
2013-01-14 00:33:00,65.0,54.0,-100.00,SSW,200,11.0,16.0,68,0.00,,,-99.99,,2013-01-14 05:33:00,
2013-01-14 00:43:00,65.0,55.0,-100.00,SSW,208,10.0,17.0,68,0.00,,,-99.99,,2013-01-14 05:43:00,
2013-01-14 00:53:00,65.0,55.0,-100.00,SSW,208,10.0,17.0,68,0.00,,,-99.99,,2013-01-14 05:53:00,
2013-01-14 01:03:00,65.0,55.0,-100.00,SSW,195,11.0,13.0,69,0.00,,,-99.99,,2013-01-14 06:03:00,
2013-01-14 01:12:00,65.0,55.0,-100.00,SSW,195,11.0,13.0,69,0.00,,,-99.99,,2013-01-14 06:12:00,
2013-01-14 01:23:00,65.0,55.0,-100.00,SSW,200,10.0,14.0,68,0.00,,,-99.99,,2013-01-14 06:23:00,
2013-01-14 01:33:00,65.0,55.0,-100.00,SSW,213,4.0,6.0,69,0.00,,,-99.99,,2013-01-14 06:33:00,
2013-01-14 01:43:00,65.0,55.0,-100.00,SSW,213,4.0,6.0,69,0.00,,,-99.99,,2013-01-14 06:43:00,
2013-01-14 01:53:00,65.0,55.0,-100.00,SSW,213,4.0,6.0,69,0.00,,,-99.99,,2013-01-14 06:53:00,
2013-01-14 02:02:00,65.0,55.0,-100.00,SSW,213,4.0,6.0,69,0.00,,,-99.99,,2013-01-14 07:02:00,
2013-01-14 02:23:00,65.0,54.0,-100.00,SSW,199,5.0,9.0,70,0.00,,,-99.99,,2013-01-14 07:23:00,
2013-01-14 02:33:00,65.0,55.0,-100.00,SSW,209,8.0,15.0,68,0.00,,,-99.99,,2013-01-14 07:33:00,
2013-01-14 02:43:00,65.0,55.0,-100.00,SSW,209,8.0,15.0,68,0.00,,,-99.99,,2013-01-14 07:43:00,
2013-01-14 02:53:00,65.0,55.0,-100.00,SSW,209,8.0,15.0,68,0.00,,,-99.99,,2013-01-14 07:53:00,
2013-01-14 03:02:00,65.0,55.0,-100.00,SSW,199,8.0,11.0,70,0.00,,,-99.99,,2013-01-14 08:02:00,
2013-01-14 03:12:00,65.0,55.0,-100.00,SSW,199,8.0,11.0,70,0.00,,,-99.99,,2013-01-14 08:12:00,
2013-01-14 03:22:00,64.0,55.0,-100.00,South,191,10.0,12.0,73,0.00,,,-99.99,,2013-01-14 08:22:00,
2013-01-14 03:33:00,63.0,56.0,-100.00,South,191,11.0,13.0,77,0.00,,,-99.99,,2013-01-14 08:33:00,
2013-01-14 03:42:00,63.0,56.0,-100.00,South,191,11.0,13.0,77,0.00,,,-99.99,,2013-01-14 08:42:00,
2013-01-14 03:53:00,62.0,57.0,-100.00,SSW,195,14.0,19.0,82,0.00,,,-99.99,,2013-01-14 08:53:00,
2013-01-14 04:03:00,62.0,57.0,-100.00,SSW,195,14.0,19.0,82,0.00,,,-99.99,,2013-01-14 09:03:00,
2013-01-14 04:12:00,62.0,57.0,-100.00,SSW,195,14.0,19.0,82,0.00,,,-99.99,,2013-01-14 09:12:00,
2013-01-14 04:23:00,61.0,57.0,-100.00,SSE,164,8.0,11.0,85,0.00,,,-99.99,,2013-01-14 09:23:00,
2013-01-14 04:34:00,61.0,57.0,-100.00,SSE,164,8.0,11.0,85,0.00,,,-99.99,,2013-01-14 09:34:00,
2013-01-14 04:43:00,61.0,57.0,-100.00,SSE,164,8.0,11.0,85,0.00,,,-99.99,,2013-01-14 09:43:00,
2013-01-14 04:53:00,60.0,57.0,-100.00,SSE,164,5.0,7.0,91,0.00,,,-99.99,,2013-01-14 09:53:00,
2013-01-14 05:03:00,60.0,57.0,-100.00,SSE,164,5.0,7.0,91,0.00,,,-99.99,,2013-01-14 10:03:00,
2013-01-14 05:12:00,60.0,57.0,-100.00,SSE,164,5.0,7.0,91,0.00,,,-99.99,,2013-01-14 10:12:00,
2013-01-14 05:23:00,59.0,57.0,-100.00,WSW,254,2.0,4.0,91,0.07,,,-99.99,,2013-01-14 10:23:00,
2013-01-14 05:33:00,59.0,57.0,-100.00,South,169,3.0,4.0,91,0.01,,,-99.99,,2013-01-14 10:33:00,
2013-01-14 05:43:00,59.0,57.0,-100.00,South,169,3.0,4.0,91,0.01,,,-99.99,,2013-01-14 10:43:00,
2013-01-14 05:53:00,59.0,56.0,-100.00,South,184,1.0,2.0,92,0.03,,,-99.99,,2013-01-14 10:53:00,
2013-01-14 06:02:00,59.0,56.0,-100.00,South,184,1.0,2.0,92,0.03,,,-99.99,,2013-01-14 11:02:00,
2013-01-14 06:12:00,59.0,56.0,-100.00,South,184,1.0,2.0,92,0.03,,,-99.99,,2013-01-14 11:12:00,
2013-01-14 06:22:00,58.0,56.0,-100.00,SW,234,0.0,1.0,93,0.00,,,-99.99,,2013-01-14 11:22:00,
2013-01-14 06:33:00,58.0,56.0,-100.00,West,271,0.0,0.0,95,0.01,,,-99.99,,2013-01-14 11:33:00,
2013-01-14 06:43:00,58.0,56.0,-100.00,West,271,0.0,0.0,95,0.01,,,-99.99,,2013-01-14 11:43:00,
2013-01-14 06:53:00,57.0,56.0,-100.00,North,354,3.0,3.0,95,0.00,,,-99.99,,2013-01-14 11:53:00,
2013-01-14 07:03:00,57.0,56.0,-100.00,North,354,3.0,3.0,95,0.00,,,-99.99,,2013-01-14 12:03:00,
2013-01-14 07:12:00,57.0,56.0,-100.00,North,354,3.0,3.0,95,0.00,,,-99.99,,2013-01-14 12:12:00,
2013-01-14 07:23:00,57.0,56.0,-100.00,NNE,17,2.0,2.0,95,0.00,,,-99.99,,2013-01-14 12:23:00,
2013-01-14 07:33:00,58.0,57.0,-100.00,South,188,3.0,5.0,96,0.00,,,-99.99,,2013-01-14 12:33:00,
2013-01-14 07:43:00,58.0,57.0,-100.00,South,188,3.0,5.0,96,0.00,,,-99.99,,2013-01-14 12:43:00,
2013-01-14 07:53:00,58.0,57.0,-100.00,SE,138,2.0,3.0,95,0.03,,,-99.99,,2013-01-14 12:53:00,
2013-01-14 08:03:00,58.0,57.0,-100.00,SE,138,2.0,3.0,95,0.03,,,-99.99,,2013-01-14 13:03:00,
2013-01-14 08:13:00,58.0,57.0,-100.00,SE,138,2.0,3.0,95,0.03,,,-99.99,,2013-01-14 13:13:00,
2013-01-14 08:23:00,59.0,57.0,-100.00,SE,131,3.0,4.0,95,0.00,,,-99.99,,2013-01-14 13:23:00,
2013-01-14 08:33:00,58.0,56.0,-100.00,WNW,301,3.0,4.0,93,0.09,,,-99.99,,2013-01-14 13:33:00,
2013-01-14 08:43:00,58.0,56.0,-100.00,WNW,301,3.0,4.0,93,0.09,,,-99.99,,2013-01-14 13:43:00,
2013-01-14 08:53:00,59.0,56.0,-100.00,NNW,330,7.0,9.0,92,0.00,,,-99.99,,2013-01-14 13:53:00,
2013-01-14 09:03:00,59.0,56.0,-100.00,NNW,330,7.0,9.0,92,0.00,,,-99.99,,2013-01-14 14:03:00,
2013-01-14 09:13:00,59.0,56.0,-100.00,NNW,330,7.0,9.0,92,0.00,,,-99.99,,2013-01-14 14:13:00,
2013-01-14 09:23:00,57.0,54.0,-100.00,NW,320,6.0,9.0,90,0.01,,,-99.99,,2013-01-14 14:23:00,
2013-01-14 09:33:00,55.0,52.0,-100.00,NW,319,4.0,5.0,87,0.04,,,-99.99,,2013-01-14 14:33:00,
2013-01-14 09:43:00,55.0,52.0,-100.00,NW,319,4.0,5.0,87,0.04,,,-99.99,,2013-01-14 14:43:00,
2013-01-14 09:53:00,55.0,52.0,-100.00,NW,319,4.0,5.0,87,0.04,,,-99.99,,2013-01-14 14:53:00,
2013-01-14 10:03:00,54.0,50.0,-100.00,NW,311,5.0,8.0,86,0.10,,,-99.99,,2013-01-14 15:03:00,
2013-01-14 10:12:00,54.0,50.0,-100.00,NW,311,5.0,8.0,86,0.10,,,-99.99,,2013-01-14 15:12:00,
2013-01-14 10:23:00,54.0,50.0,-100.00,NE,40,2.0,3.0,87,0.10,,,-99.99,,2013-01-14 15:23:00,
2013-01-14 10:33:00,54.0,50.0,-100.00,NNW,333,4.0,6.0,89,0.03,,,-99.99,,2013-01-14 15:33:00,
2013-01-14 10:43:00,54.0,50.0,-100.00,NNW,333,4.0,6.0,89,0.03,,,-99.99,,2013-01-14 15:43:00,
2013-01-14 10:53:00,54.0,50.0,-100.00,NNW,333,4.0,6.0,89,0.03,,,-99.99,,2013-01-14 15:53:00,
2013-01-14 11:03:00,53.0,49.0,-100.00,North,10,5.0,7.0,87,0.00,,,-99.99,,2013-01-14 16:03:00,
2013-01-14 11:13:00,53.0,49.0,-100.00,North,10,5.0,7.0,87,0.00,,,-99.99,,2013-01-14 16:13:00,
2013-01-14 11:23:00,53.0,49.0,-100.00,NNW,333,5.0,7.0,87,0.00,,,-99.99,,2013-01-14 16:23:00,
2013-01-14 11:33:00,53.0,49.0,-100.00,North,356,4.0,6.0,87,0.00,,,-99.99,,2013-01-14 16:33:00,
2013-01-14 11:43:00,53.0,49.0,-100.00,North,356,4.0,6.0,87,0.00,,,-99.99,,2013-01-14 16:43:00,
2013-01-14 11:53:00,53.0,49.0,-100.00,North,356,4.0,6.0,87,0.00,,,-99.99,,2013-01-14 16:53:00,
2013-01-14 12:03:00,53.0,49.0,-100.00,NNW,346,4.0,6.0,86,0.00,,,-99.99,,2013-01-14 17:03:00,
2013-01-14 12:12:00,53.0,49.0,-100.00,NNW,346,4.0,6.0,86,0.00,,,-99.99,,2013-01-14 17:12:00,
2013-01-14 12:23:00,54.0,50.0,-100.00,NNW,343,3.0,4.0,87,0.00,,,-99.99,,2013-01-14 17:23:00,
2013-01-14 12:33:00,54.0,50.0,-100.00,NNW,343,3.0,4.0,87,0.00,,,-99.99,,2013-01-14 17:33:00,
2013-01-14 12:43:00,53.0,49.0,-100.00,NNE,16,5.0,6.0,84,0.00,,,-99.99,,2013-01-14 17:43:00,
2013-01-14 12:54:00,53.0,49.0,-100.00,NNE,16,5.0,6.0,84,0.00,,,-99.99,,2013-01-14 17:54:00,
2013-01-14 13:03:00,53.0,49.0,-100.00,NNE,16,3.0,4.0,86,0.00,,,-99.99,,2013-01-14 18:03:00,
2013-01-14 13:13:00,53.0,49.0,-100.00,NNE,16,3.0,4.0,86,0.00,,,-99.99,,2013-01-14 18:13:00,
2013-01-14 13:23:00,53.0,49.0,-100.00,NNE,16,3.0,4.0,86,0.00,,,-99.99,,2013-01-14 18:23:00,
2013-01-14 13:43:00,53.0,47.0,-100.00,NNW,339,5.0,7.0,81,0.00,,,-99.99,,2013-01-14 18:43:00,
2013-01-14 13:53:00,53.0,47.0,-100.00,NNW,339,5.0,7.0,81,0.00,,,-99.99,,2013-01-14 18:53:00,
2013-01-14 14:03:00,53.0,47.0,-100.00,NNW,336,4.0,6.0,79,0.00,,,-99.99,,2013-01-14 19:03:00,
2013-01-14 14:13:00,53.0,47.0,-100.00,NNW,336,4.0,6.0,79,0.00,,,-99.99,,2013-01-14 19:13:00,
2013-01-14 14:22:00,53.0,47.0,-100.00,NE,41,2.0,3.0,81,0.00,,,-99.99,,2013-01-14 19:22:00,
2013-01-14 14:33:00,53.0,47.0,-100.00,NE,41,2.0,3.0,81,0.00,,,-99.99,,2013-01-14 19:33:00,
2013-01-14 14:43:00,52.0,48.0,-100.00,North,3,4.0,5.0,85,0.17,,,-99.99,,2013-01-14 19:43:00,
2013-01-14 14:53:00,51.0,48.0,-100.00,North,4,4.0,6.0,89,0.23,,,-99.99,,2013-01-14 19:53:00,
2013-01-14 15:04:00,51.0,48.0,-100.00,North,4,4.0,6.0,89,0.23,,,-99.99,,2013-01-14 20:04:00,
2013-01-14 15:13:00,51.0,48.0,-100.00,North,4,4.0,6.0,89,0.23,,,-99.99,,2013-01-14 20:13:00,
2013-01-14 15:23:00,52.0,49.0,-100.00,NNW,340,7.0,8.0,90,0.04,,,0.26,,2013-01-14 20:23:00,
2013-01-14 15:33:00,52.0,49.0,-100.00,NNW,340,7.0,8.0,90,0.04,,,0.26,,2013-01-14 20:33:00,
2013-01-14 15:43:00,52.0,49.0,-100.00,NNE,23,3.0,5.0,90,0.00,,,0.26,,2013-01-14 20:43:00,
2013-01-14 15:53:00,52.0,49.0,-100.00,NNE,23,3.0,5.0,90,0.00,,,0.26,,2013-01-14 20:53:00,
2013-01-14 16:03:00,52.0,49.0,-100.00,NNW,344,4.0,6.0,91,0.00,,,0.26,,2013-01-14 21:03:00,
2013-01-14 16:13:00,52.0,49.0,-100.00,NNW,344,4.0,6.0,91,0.00,,,0.26,,2013-01-14 21:13:00,
2013-01-14 16:23:00,52.0,49.0,-100.00,NNW,343,2.0,6.0,90,0.00,,,0.26,,2013-01-14 21:23:00,
2013-01-14 16:33:00,52.0,49.0,-100.00,NW,325,5.0,7.0,90,0.00,,,0.26,,2013-01-14 21:33:00,
2013-01-14 16:43:00,52.0,49.0,-100.00,North,4,3.0,4.0,90,0.00,,,0.26,,2013-01-14 21:43:00,
2013-01-14 16:53:00,52.0,49.0,-100.00,North,4,3.0,4.0,90,0.00,,,0.26,,2013-01-14 21:53:00,
2013-01-14 17:03:00,52.0,49.0,-100.00,SW,217,0.0,1.0,90,0.00,,,0.26,,2013-01-14 22:03:00,
2013-01-14 17:12:00,52.0,49.0,-100.00,SW,217,0.0,1.0,90,0.00,,,0.26,,2013-01-14 22:12:00,
2013-01-14 17:23:00,52.0,49.0,-100.00,WNW,282,2.0,2.0,91,0.03,,,0.26,,2013-01-14 22:23:00,
2013-01-14 17:33:00,51.0,49.0,-100.00,SE,133,6.0,7.0,91,0.00,,,0.27,,2013-01-14 22:33:00,
2013-01-14 17:43:00,51.0,49.0,-100.00,SE,133,6.0,7.0,91,0.00,,,0.27,,2013-01-14 22:43:00,
2013-01-14 17:53:00,51.0,49.0,-100.00,SE,133,6.0,7.0,91,0.00,,,0.27,,2013-01-14 22:53:00,
2013-01-14 18:03:00,51.0,49.0,-100.00,NW,326,4.0,6.0,93,0.14,,,0.31,,2013-01-14 23:03:00,
2013-01-14 18:12:00,51.0,49.0,-100.00,NW,326,4.0,6.0,93,0.14,,,0.31,,2013-01-14 23:12:00,
2013-01-14 18:23:00,51.0,49.0,-100.00,NW,323,1.0,1.0,94,0.01,,,0.33,,2013-01-14 23:23:00,
2013-01-14 18:33:00,51.0,49.0,-100.00,NW,323,1.0,1.0,94,0.01,,,0.33,,2013-01-14 23:33:00,
2013-01-14 18:43:00,51.0,49.0,-100.00,NW,323,1.0,1.0,94,0.01,,,0.33,,2013-01-14 23:43:00,
2013-01-14 18:53:00,51.0,49.0,-100.00,NNW,332,1.0,2.0,95,0.01,,,0.35,,2013-01-14 23:53:00,
2013-01-14 19:03:00,51.0,49.0,-100.00,NNW,332,1.0,2.0,95,0.01,,,0.35,,2013-01-15 00:03:00,
2013-01-14 19:12:00,51.0,49.0,-100.00,NNW,332,1.0,2.0,95,0.01,,,0.35,,2013-01-15 00:12:00,
2013-01-14 19:23:00,50.0,49.0,-100.00,NE,40,0.0,1.0,94,0.03,,,0.36,,2013-01-15 00:23:00,
2013-01-14 19:33:00,50.0,49.0,-100.00,NE,40,0.0,1.0,94,0.03,,,0.36,,2013-01-15 00:33:00,
2013-01-14 19:43:00,50.0,49.0,-100.00,NE,40,0.0,1.0,94,0.03,,,0.36,,2013-01-15 00:43:00,
2013-01-14 19:53:00,50.0,49.0,-100.00,ENE,65,3.0,5.0,95,0.43,,,0.47,,2013-01-15 00:53:00,
2013-01-14 20:02:00,50.0,49.0,-100.00,ENE,65,3.0,5.0,95,0.43,,,0.47,,2013-01-15 01:02:00,
2013-01-14 20:12:00,50.0,49.0,-100.00,NE,55,4.0,6.0,95,0.04,,,0.54,,2013-01-15 01:12:00,
2013-01-14 20:23:00,50.0,49.0,-100.00,NE,55,4.0,6.0,95,0.04,,,0.54,,2013-01-15 01:23:00,
2013-01-14 20:32:00,50.0,49.0,-100.00,NE,45,1.0,2.0,95,0.11,,,0.58,,2013-01-15 01:32:00,
2013-01-14 20:43:00,50.0,49.0,-100.00,NE,45,1.0,2.0,95,0.11,,,0.58,,2013-01-15 01:43:00,
2013-01-14 20:53:00,50.0,49.0,-100.00,NE,49,3.0,5.0,96,0.51,,,0.64,,2013-01-15 01:53:00,
2013-01-14 21:03:00,50.0,49.0,-100.00,NE,49,3.0,5.0,96,0.51,,,0.64,,2013-01-15 02:03:00,
2013-01-14 21:12:00,50.0,49.0,-100.00,NE,49,3.0,5.0,96,0.51,,,0.64,,2013-01-15 02:12:00,
2013-01-14 21:23:00,50.0,49.0,-100.00,NNE,17,4.0,5.0,96,0.04,,,0.67,,2013-01-15 02:23:00,
2013-01-14 21:33:00,50.0,49.0,-100.00,NNE,17,4.0,5.0,96,0.04,,,0.67,,2013-01-15 02:33:00,
2013-01-14 21:42:00,50.0,49.0,-100.00,NNE,17,4.0,5.0,96,0.04,,,0.67,,2013-01-15 02:42:00,
2013-01-14 21:53:00,49.0,48.0,-100.00,NE,52,6.0,8.0,96,0.04,,,0.78,,2013-01-15 02:53:00,
2013-01-14 22:03:00,49.0,48.0,-100.00,NE,52,6.0,8.0,96,0.04,,,0.78,,2013-01-15 03:03:00,
2013-01-14 22:12:00,49.0,48.0,-100.00,NE,52,6.0,8.0,96,0.04,,,0.78,,2013-01-15 03:12:00,
2013-01-14 22:22:00,49.0,48.0,-100.00,NE,49,4.0,6.0,96,0.10,,,0.86,,2013-01-15 03:22:00,
2013-01-14 22:33:00,48.0,47.0,-100.00,NE,41,5.0,6.0,96,0.31,,,0.96,,2013-01-15 03:33:00,
2013-01-14 22:42:00,48.0,47.0,-100.00,NE,41,5.0,6.0,96,0.31,,,0.96,,2013-01-15 03:42:00,
2013-01-14 22:53:00,48.0,47.0,-100.00,NNE,23,4.0,6.0,96,0.18,,,1.06,,2013-01-15 03:53:00,
2013-01-14 23:03:00,48.0,47.0,-100.00,NNE,23,4.0,6.0,96,0.18,,,1.06,,2013-01-15 04:03:00,
2013-01-14 23:12:00,48.0,47.0,-100.00,NNE,23,4.0,6.0,96,0.18,,,1.06,,2013-01-15 04:12:00,
2013-01-14 23:22:00,48.0,47.0,-100.00,NNW,340,4.0,6.0,96,0.37,,,1.13,,2013-01-15 04:22:00,
2013-01-14 23:33:00,47.0,45.0,-100.00,North,7,5.0,7.0,95,0.31,,,1.24,,2013-01-15 04:33:00,
2013-01-14 23:42:00,47.0,45.0,-100.00,North,7,5.0,7.0,95,0.31,,,1.24,,2013-01-15 04:42:00,
2013-01-14 23:52:00,46.0,45.0,-100.00,NNW,342,6.0,7.0,96,0.35,,,1.35,,2013-01-15 04:52:00,